createdAt,value
2019-02-24T00:03:33.321Z,3.77
2019-02-24T00:08:36.722Z,3.76
2019-02-24T00:13:40.140Z,3.75
2019-02-24T00:18:43.549Z,3.68
2019-02-24T00:23:46.986Z,3.71
2019-02-24T00:28:50.467Z,3.78
2019-02-24T00:33:53.942Z,3.80
2019-02-24T00:38:57.400Z,3.75
2019-02-24T00:44:00.826Z,3.66
2019-02-24T00:49:04.248Z,3.51
2019-02-24T00:54:07.713Z,3.46
2019-02-24T00:59:11.145Z,3.40
2019-02-24T01:04:14.577Z,3.24
2019-02-24T01:09:18.052Z,3.19
2019-02-24T01:14:21.430Z,3.12
2019-02-24T01:19:24.904Z,2.94
2019-02-24T01:24:28.309Z,2.89
2019-02-24T01:29:31.738Z,2.92
2019-02-24T01:34:35.174Z,2.90
2019-02-24T01:39:38.617Z,2.98
2019-02-24T01:44:42.077Z,2.89
2019-02-24T01:49:45.566Z,2.88
2019-02-24T01:54:48.996Z,2.85
2019-02-24T01:59:52.406Z,2.70
2019-02-24T02:04:55.840Z,2.75
2019-02-24T02:09:59.284Z,2.77
2019-02-24T02:15:02.697Z,2.81
2019-02-24T02:20:08.570Z,2.77
2019-02-24T02:25:12.016Z,2.78
2019-02-24T02:30:15.492Z,2.65
2019-02-24T02:35:18.900Z,2.49
2019-02-24T02:40:22.407Z,2.34
2019-02-24T02:45:25.910Z,2.28
2019-02-24T02:50:29.362Z,2.29
2019-02-24T02:55:32.800Z,2.17
2019-02-24T03:00:36.817Z,2.26
2019-02-24T03:05:41.877Z,2.42
2019-02-24T03:10:45.365Z,2.29
2019-02-24T03:15:48.790Z,2.04
2019-02-24T03:20:52.218Z,2.29
2019-02-24T03:25:55.632Z,2.24
2019-02-24T03:30:59.051Z,2.08
2019-02-24T03:36:02.538Z,2.18
2019-02-24T03:41:07.047Z,2.21
2019-02-24T03:46:10.614Z,1.97
2019-02-24T03:51:14.056Z,1.87
2019-02-24T03:56:17.566Z,1.76
2019-02-24T04:01:20.996Z,1.58
2019-02-24T04:06:24.444Z,1.58
2019-02-24T04:11:27.860Z,1.71
2019-02-24T04:16:31.303Z,1.66
2019-02-24T04:21:34.797Z,1.68
2019-02-24T04:26:38.258Z,1.70
2019-02-24T04:31:41.686Z,1.55
2019-02-24T04:36:45.138Z,1.75
2019-02-24T04:41:48.569Z,1.81
2019-02-24T04:46:52.002Z,1.72
2019-02-24T04:51:55.495Z,1.56
2019-02-24T04:56:58.907Z,1.24
2019-02-24T05:02:02.358Z,1.39
2019-02-24T05:07:05.785Z,1.44
2019-02-24T05:12:09.208Z,1.40
2019-02-24T05:17:12.656Z,1.32
2019-02-24T05:22:16.100Z,1.37
2019-02-24T05:27:19.528Z,1.21
2019-02-24T05:32:22.978Z,1.06
2019-02-24T05:37:26.371Z,1.36
2019-02-24T05:42:29.809Z,1.19
2019-02-24T05:47:33.253Z,1.33
2019-02-24T05:52:36.701Z,1.27
2019-02-24T05:57:40.113Z,1.22
2019-02-24T06:02:43.573Z,1.34
2019-02-24T06:07:46.988Z,1.31
2019-02-24T06:12:50.421Z,1.43
2019-02-24T06:17:53.829Z,1.31
2019-02-24T06:22:57.293Z,1.28
2019-02-24T06:28:00.807Z,1.03
2019-02-24T06:33:04.273Z,1.10
2019-02-24T06:38:07.692Z,1.27
2019-02-24T06:43:11.135Z,1.36
2019-02-24T06:48:14.545Z,1.31
2019-02-24T06:53:18.025Z,1.25
2019-02-24T06:58:21.452Z,1.36
2019-02-24T07:03:24.864Z,1.33
2019-02-24T07:08:28.361Z,1.42
2019-02-24T07:13:31.868Z,1.35
2019-02-24T07:18:36.184Z,1.46
2019-02-24T07:23:39.734Z,1.40
2019-02-24T07:28:43.110Z,1.59
2019-02-24T07:33:46.526Z,1.77
2019-02-24T07:38:49.975Z,1.84
2019-02-24T07:43:53.437Z,1.90
2019-02-24T07:48:56.858Z,2.07
2019-02-24T07:54:00.349Z,2.21
2019-02-24T07:59:03.779Z,2.44
2019-02-24T08:04:07.207Z,2.63
2019-02-24T08:09:10.619Z,2.76
2019-02-24T08:14:14.057Z,2.81
2019-02-24T08:19:17.483Z,2.91
2019-02-24T08:24:20.903Z,3.30
2019-02-24T08:29:24.343Z,3.42
2019-02-24T08:34:27.776Z,3.55
2019-02-24T08:39:31.198Z,3.97
2019-02-24T08:44:34.640Z,4.31
2019-02-24T08:49:38.067Z,4.82
2019-02-24T08:54:41.503Z,5.25
2019-02-24T08:59:44.922Z,5.93
2019-02-24T09:04:48.378Z,6.42
2019-02-24T09:09:51.822Z,6.98
2019-02-24T09:14:55.280Z,7.20
2019-02-24T09:19:58.707Z,7.58
2019-02-24T09:25:03.376Z,7.99
2019-02-24T09:30:12.107Z,8.51
2019-02-24T09:35:15.533Z,8.81
2019-02-24T09:40:18.989Z,9.43
2019-02-24T09:45:22.406Z,9.62
2019-02-24T09:50:26.024Z,9.81
2019-02-24T09:55:31.014Z,10.09
2019-02-24T10:00:34.469Z,10.62
2019-02-24T10:05:38.987Z,10.99
2019-02-24T10:10:42.507Z,11.64
2019-02-24T10:15:45.935Z,12.02
2019-02-24T10:20:49.410Z,12.46
2019-02-24T10:25:52.848Z,12.88
2019-02-24T10:30:56.307Z,13.35
2019-02-24T10:35:59.738Z,13.60
2019-02-24T10:41:03.173Z,14.08
2019-02-24T10:46:06.608Z,14.54
2019-02-24T10:51:10.023Z,14.86
2019-02-24T10:56:13.479Z,15.37
2019-02-24T11:01:16.907Z,15.76
2019-02-24T11:06:20.327Z,16.10
2019-02-24T11:11:23.757Z,16.48
2019-02-24T11:16:27.202Z,16.60
2019-02-24T11:21:30.624Z,17.28
2019-02-24T11:26:34.043Z,17.59
2019-02-24T11:31:38.585Z,18.03
2019-02-24T11:36:42.172Z,18.23
2019-02-24T11:41:45.668Z,18.34
2019-02-24T11:46:49.089Z,18.37
2019-02-24T11:51:52.668Z,18.25
2019-02-24T11:56:56.100Z,17.89
2019-02-24T12:01:59.569Z,18.62
2019-02-24T12:07:03.070Z,19.16
2019-02-24T12:12:06.508Z,19.04
2019-02-24T12:17:09.946Z,19.37
2019-02-24T12:22:13.368Z,18.95
2019-02-24T12:27:16.809Z,18.62
2019-02-24T12:32:20.224Z,18.41
2019-02-24T12:37:23.738Z,18.52
2019-02-24T12:42:27.154Z,19.04
2019-02-24T12:47:30.567Z,19.54
2019-02-24T12:52:34.027Z,20.14
2019-02-24T12:57:37.466Z,20.85
2019-02-24T13:02:40.905Z,21.21
2019-02-24T13:07:44.348Z,21.03
2019-02-24T13:12:47.778Z,21.15
2019-02-24T13:17:51.313Z,21.71
2019-02-24T13:22:54.794Z,22.03
2019-02-24T13:27:58.234Z,21.13
2019-02-24T13:33:01.680Z,21.20
2019-02-24T13:38:05.111Z,20.92
2019-02-24T13:43:08.534Z,20.63
2019-02-24T13:48:11.957Z,20.50
2019-02-24T13:53:15.377Z,19.87
2019-02-24T13:58:18.829Z,19.71
2019-02-24T14:03:22.270Z,19.91
2019-02-24T14:08:27.686Z,19.05
2019-02-24T14:13:30.884Z,19.09
2019-02-24T14:18:34.289Z,18.71
2019-02-24T14:23:37.727Z,18.76
2019-02-24T14:28:41.295Z,18.06
2019-02-24T14:33:44.743Z,18.32
2019-02-24T14:38:48.182Z,18.03
2019-02-24T14:43:51.591Z,17.95
2019-02-24T14:48:55.005Z,17.90
2019-02-24T14:53:58.419Z,17.75
2019-02-24T14:59:01.855Z,17.78
2019-02-24T15:04:05.497Z,17.33
2019-02-24T15:09:09.100Z,17.11
2019-02-24T15:14:12.604Z,17.09
2019-02-24T15:19:16.334Z,17.16
2019-02-24T15:24:19.778Z,17.04
2019-02-24T15:29:23.209Z,16.87
2019-02-24T15:34:26.620Z,16.66
2019-02-24T15:39:30.123Z,16.50
2019-02-24T15:44:33.559Z,16.19
2019-02-24T15:49:36.997Z,16.00
2019-02-24T15:54:40.420Z,15.66
2019-02-24T15:59:43.846Z,15.40
2019-02-24T16:04:47.328Z,15.16
2019-02-24T16:09:50.786Z,15.13
2019-02-24T16:14:54.208Z,15.05
2019-02-24T16:19:57.639Z,14.94
2019-02-24T16:25:01.073Z,14.72
2019-02-24T16:30:06.868Z,14.46
2019-02-24T16:35:12.863Z,14.14
2019-02-24T16:40:18.952Z,13.81
2019-02-24T16:45:22.525Z,13.45
2019-02-24T16:50:25.954Z,13.23
2019-02-24T16:55:29.464Z,12.92
2019-02-24T17:00:32.969Z,12.68
2019-02-24T17:05:36.973Z,12.32
2019-02-24T17:10:40.612Z,11.95
2019-02-24T17:15:44.108Z,11.71
2019-02-24T17:20:47.516Z,11.45
2019-02-24T17:25:52.971Z,11.26
2019-02-24T17:30:56.094Z,11.13
2019-02-24T17:35:59.516Z,10.91
2019-02-24T17:41:03.035Z,10.62
2019-02-24T17:46:06.466Z,10.37
2019-02-24T17:51:09.926Z,10.19
2019-02-24T17:56:13.332Z,9.93
2019-02-24T18:01:16.796Z,9.63
2019-02-24T18:06:20.236Z,9.41
2019-02-24T18:11:23.767Z,9.16
2019-02-24T18:16:27.166Z,8.92
2019-02-24T18:21:30.618Z,8.89
2019-02-24T18:26:34.063Z,8.69
2019-02-24T18:31:37.510Z,8.51
2019-02-24T18:36:40.965Z,8.46
2019-02-24T18:41:44.403Z,8.19
2019-02-24T18:46:47.836Z,8.23
2019-02-24T18:51:51.274Z,8.02
2019-02-24T18:56:55.656Z,7.75
2019-02-24T19:01:59.097Z,7.80
2019-02-24T19:07:02.619Z,7.79
2019-02-24T19:12:06.014Z,7.67
2019-02-24T19:17:09.452Z,7.49
2019-02-24T19:22:12.836Z,7.25
2019-02-24T19:27:16.328Z,7.30
2019-02-24T19:32:19.726Z,7.21
2019-02-24T19:37:23.276Z,7.08
2019-02-24T19:42:26.714Z,7.03
2019-02-24T19:47:30.217Z,6.95
2019-02-24T19:52:33.641Z,6.78
2019-02-24T19:57:37.100Z,6.87
2019-02-24T20:02:40.572Z,6.78
2019-02-24T20:07:43.976Z,6.82
2019-02-24T20:12:47.415Z,6.65
2019-02-24T20:17:50.891Z,6.61
2019-02-24T20:22:54.331Z,6.58
2019-02-24T20:27:57.751Z,6.48
2019-02-24T20:33:01.177Z,6.35
2019-02-24T20:38:04.614Z,6.32
2019-02-24T20:43:08.059Z,6.23
2019-02-24T20:48:12.346Z,6.03
2019-02-24T20:53:15.828Z,6.13
2019-02-24T20:58:19.265Z,5.92
2019-02-24T21:03:22.771Z,5.97
2019-02-24T21:08:26.218Z,5.87
2019-02-24T21:13:29.638Z,5.83
2019-02-24T21:18:33.121Z,5.96
2019-02-24T21:23:36.548Z,5.94
2019-02-24T21:28:40.032Z,5.80
2019-02-24T21:33:43.463Z,5.74
2019-02-24T21:38:47.112Z,5.71
2019-02-24T21:43:50.627Z,5.52
2019-02-24T21:48:54.071Z,5.51
2019-02-24T21:53:57.482Z,5.41
2019-02-24T21:59:00.913Z,5.26
2019-02-24T22:04:04.405Z,5.38
2019-02-24T22:09:09.858Z,5.35
2019-02-24T22:14:13.404Z,5.09
2019-02-24T22:19:16.855Z,5.11
2019-02-24T22:24:20.353Z,4.98
2019-02-24T22:29:23.816Z,5.02
2019-02-24T22:34:27.234Z,4.83
2019-02-24T22:39:31.729Z,4.98
2019-02-24T22:44:35.208Z,4.85
2019-02-24T22:49:38.669Z,4.89
2019-02-24T22:54:42.106Z,4.75
2019-02-24T22:59:45.588Z,4.57
2019-02-24T23:04:49.076Z,4.75
2019-02-24T23:09:52.513Z,4.77
2019-02-24T23:14:55.939Z,4.75
2019-02-24T23:19:59.352Z,4.70
2019-02-24T23:25:02.788Z,4.55
2019-02-24T23:30:08.541Z,4.41
2019-02-24T23:35:12.044Z,4.21
2019-02-24T23:40:15.465Z,4.16
2019-02-24T23:45:18.882Z,4.23
2019-02-24T23:50:22.303Z,4.09
2019-02-24T23:55:25.978Z,4.08
